Time;durP1;ratioP1;P1;durP2;ratioP2;P2;SDS_P1;SDS_P2;PMS_P1;PMS_P2;Temp;Humidity;BMP_temperature;BMP_pressure;BME280_temperature;BME280_humidity;BME280_pressure;Samples;Min_cycle;Max_cycle;Signal;HPM_P1;HPM_P2
2023/04/04 00:01:31;;;;;;;7.45;3.00;;;;;;;3.29;100.00;103142.72;5028225;28;20026;-68
2023/04/04 00:03:57;;;;;;;6.00;3.00;;;;;;;3.25;100.00;103149.53;5011964;28;20040;-68
2023/04/04 00:06:23;;;;;;;4.03;3.05;;;;;;;3.17;100.00;103140.59;5029077;28;20518;-68
2023/04/04 00:08:48;;;;;;;6.20;3.03;;;;;;;3.15;100.00;103134.44;5029550;28;20124;-69
2023/04/04 00:11:14;;;;;;;4.72;3.42;;;;;;;3.18;100.00;103141.47;5029813;28;20555;-69
2023/04/04 00:13:40;;;;;;;5.00;3.22;;;;;;;3.12;100.00;103134.31;5012136;28;20075;-68
2023/04/04 00:16:05;;;;;;;9.88;3.38;;;;;;;3.10;100.00;103136.88;5010431;28;20460;-67
2023/04/04 00:18:31;;;;;;;8.88;3.33;;;;;;;3.08;100.00;103133.34;5029136;28;20044;-68
2023/04/04 00:20:57;;;;;;;7.85;3.28;;;;;;;3.03;100.00;103127.97;5028941;28;20037;-69
2023/04/04 00:23:22;;;;;;;5.80;3.42;;;;;;;3.03;100.00;103127.09;5029080;28;20026;-69
2023/04/04 00:25:51;;;;;;;6.50;3.60;;;;;;;2.94;100.00;103119.84;5029144;28;20580;-69
2023/04/04 00:28:20;;;;;;;5.45;3.28;;;;;;;2.92;100.00;103121.50;5022794;28;20452;-69
2023/04/04 00:30:46;;;;;;;6.30;3.25;;;;;;;2.92;100.00;103118.88;5008004;28;20066;-69
2023/04/04 00:33:12;;;;;;;7.53;3.30;;;;;;;2.91;100.00;103117.13;5007218;28;20057;-70
2023/04/04 00:35:38;;;;;;;7.75;3.70;;;;;;;2.95;100.00;103120.72;5021293;28;20036;-69
2023/04/04 00:38:03;;;;;;;8.05;3.65;;;;;;;2.94;100.00;103117.22;5026816;28;20049;-70
2023/04/04 00:40:29;;;;;;;8.93;3.40;;;;;;;2.86;100.00;103111.75;5027333;28;20030;-68
2023/04/04 00:42:54;;;;;;;6.63;3.45;;;;;;;2.74;100.00;103107.00;5029011;28;20112;-68
2023/04/04 00:45:20;;;;;;;6.88;3.17;;;;;;;2.79;100.00;103112.38;5027751;28;20025;-68
2023/04/04 00:47:46;;;;;;;4.55;2.97;;;;;;;2.64;100.00;103111.00;5026534;28;20022;-68
2023/04/04 00:50:11;;;;;;;7.97;3.35;;;;;;;2.55;100.00;103114.97;5010279;28;20027;-68
2023/04/04 00:52:36;;;;;;;5.75;3.72;;;;;;;2.59;100.00;103107.31;5027349;28;20109;-67
2023/04/04 00:55:03;;;;;;;8.77;3.15;;;;;;;2.53;100.00;103109.72;5027577;28;20034;-70
2023/04/04 00:57:29;;;;;;;7.85;3.35;;;;;;;2.47;100.00;103107.78;5028438;28;20103;-70
2023/04/04 00:59:56;;;;;;;10.00;4.00;;;;;;;2.45;100.00;103111.16;5010086;28;20032;-68
2023/04/04 01:02:23;;;;;;;10.95;3.47;;;;;;;2.47;100.00;103112.09;5009714;28;20033;-68
2023/04/04 01:04:48;;;;;;;7.75;3.60;;;;;;;2.48;100.00;103109.56;5026057;28;20029;-70
2023/04/04 01:07:13;;;;;;;4.78;2.85;;;;;;;2.46;100.00;103115.50;5009794;28;20044;-69
2023/04/04 01:09:39;;;;;;;11.25;3.25;;;;;;;2.41;100.00;103117.97;4994371;28;20026;-68
2023/04/04 01:12:05;;;;;;;9.43;4.35;;;;;;;2.39;100.00;103110.13;5063746;23;20570;-68
2023/04/04 01:14:30;;;;;;;7.60;3.10;;;;;;;2.44;100.00;103109.38;5008298;28;20108;-68
2023/04/04 01:16:56;;;;;;;5.28;3.70;;;;;;;2.43;100.00;103115.41;5026984;28;20057;-68
2023/04/04 01:19:27;;;;;;;6.72;3.60;;;;;;;2.41;100.00;103112.78;5025881;28;20017;-68
2023/04/04 01:21:53;;;;;;;4.45;3.25;;;;;;;2.37;100.00;103113.47;5010575;28;20124;-68
2023/04/04 01:24:21;;;;;;;4.72;3.00;;;;;;;2.28;100.00;103111.41;5010856;28;20821;-69
2023/04/04 01:26:47;;;;;;;5.78;3.40;;;;;;;2.33;100.00;103107.28;5026011;28;20044;-69
2023/04/04 01:29:12;;;;;;;7.03;3.10;;;;;;;2.36;100.00;103098.69;4996162;28;20029;-69
2023/04/04 01:31:47;;;;;;;5.85;3.03;;;;;;;2.30;100.00;103095.84;5027792;28;20025;-67
2023/04/04 01:34:31;;;;;;;6.00;3.00;;;;;;;2.19;100.00;103096.34;5008500;28;20026;-71
2023/04/04 01:37:02;;;;;;;6.28;3.42;;;;;;;2.22;100.00;103096.47;5010078;28;20095;-68
2023/04/04 01:39:34;;;;;;;10.20;3.60;;;;;;;2.20;100.00;103102.44;5027618;28;20037;-69
2023/04/04 01:42:01;;;;;;;5.88;3.45;;;;;;;2.21;100.00;103099.00;5004933;28;20091;-68
2023/04/04 01:44:26;;;;;;;8.73;3.42;;;;;;;2.20;100.00;103099.84;5010366;28;20021;-68
2023/04/04 01:46:53;;;;;;;9.65;3.72;;;;;;;2.17;100.00;103099.72;5026097;28;20021;-68
2023/04/04 01:49:19;;;;;;;6.25;3.45;;;;;;;2.18;100.00;103107.59;5025620;28;20065;-68
2023/04/04 01:51:45;;;;;;;9.27;3.30;;;;;;;2.16;100.00;103101.44;5027094;28;20056;-69
2023/04/04 01:54:11;;;;;;;7.00;3.40;;;;;;;2.09;100.00;103092.53;5007991;28;20032;-67
2023/04/04 01:56:36;;;;;;;4.32;3.47;;;;;;;2.14;100.00;103103.09;5027121;28;20033;-68
2023/04/04 01:59:01;;;;;;;6.60;3.58;;;;;;;1.97;100.00;103100.75;5008404;28;20535;-68
2023/04/04 02:01:27;;;;;;;6.72;3.03;;;;;;;1.92;100.00;103097.06;5027920;28;20064;-68
2023/04/04 02:03:52;;;;;;;6.13;3.38;;;;;;;1.87;100.00;103099.47;5008654;28;20083;-68
2023/04/04 02:06:18;;;;;;;8.10;3.58;;;;;;;1.82;100.00;103105.31;5025444;28;20038;-69
2023/04/04 02:08:43;;;;;;;4.63;3.50;;;;;;;1.69;100.00;103110.06;5026925;28;20116;-69
2023/04/04 02:11:09;;;;;;;7.75;3.85;;;;;;;1.76;100.00;103114.69;5007611;28;20049;-68
2023/04/04 02:13:36;;;;;;;8.05;3.63;;;;;;;1.80;100.00;103104.41;5009941;28;20021;-69
2023/04/04 02:16:02;;;;;;;7.05;3.70;;;;;;;1.77;100.00;103112.94;5025290;28;20037;-69
2023/04/04 02:18:27;;;;;;;5.78;3.60;;;;;;;1.79;100.00;103120.81;5026853;28;20029;-68
2023/04/04 02:20:58;;;;;;;4.82;3.15;;;;;;;1.82;100.00;103107.94;5026994;28;20112;-68
2023/04/04 02:23:24;;;;;;;4.03;3.33;;;;;;;1.86;100.00;103115.00;5013816;28;20064;-69
2023/04/04 02:25:50;;;;;;;6.03;3.58;;;;;;;1.83;100.00;103122.69;5022390;28;20061;-67
2023/04/04 02:28:16;;;;;;;6.55;3.67;;;;;;;1.81;100.00;103125.25;5026502;28;20056;-67
2023/04/04 02:30:41;;;;;;;6.82;3.47;;;;;;;1.84;100.00;103127.09;5026812;28;20025;-67
2023/04/04 02:33:07;;;;;;;7.18;3.88;;;;;;;1.85;100.00;103119.34;5025368;28;20041;-68
2023/04/04 02:35:32;;;;;;;6.60;3.90;;;;;;;1.82;100.00;103120.94;5027064;28;20032;-70
2023/04/04 02:37:57;;;;;;;5.75;3.47;;;;;;;1.68;100.00;103118.66;5026647;28;20044;-67
2023/04/04 02:40:23;;;;;;;6.63;3.22;;;;;;;1.63;100.00;103109.81;5026852;28;20109;-68
2023/04/04 02:42:48;;;;;;;7.40;3.58;;;;;;;1.59;100.00;103102.69;5026683;28;20036;-69
2023/04/04 02:45:13;;;;;;;12.82;3.92;;;;;;;1.56;100.00;103098.25;5025823;28;20030;-67
2023/04/04 02:47:40;;;;;;;6.35;3.67;;;;;;;1.46;100.00;103097.03;5026501;28;20025;-69
2023/04/04 02:50:06;;;;;;;5.55;3.80;;;;;;;1.50;100.00;103087.63;5008186;28;20463;-69
2023/04/04 02:52:31;;;;;;;6.80;3.13;;;;;;;1.50;100.00;103085.03;5027164;28;20025;-69
2023/04/04 02:54:57;;;;;;;7.80;3.92;;;;;;;1.54;100.00;103088.66;5026901;28;20471;-68
2023/04/04 02:57:22;;;;;;;8.60;4.05;;;;;;;1.46;100.00;103076.22;5021502;28;20033;-69
2023/04/04 02:59:47;;;;;;;9.27;4.13;;;;;;;1.44;100.00;103079.59;5026760;28;20025;-67
2023/04/04 03:02:13;;;;;;;8.32;3.72;;;;;;;1.42;100.00;103078.63;5024715;28;20036;-68
2023/04/04 03:04:38;;;;;;;6.03;4.32;;;;;;;1.40;100.00;103075.97;5008153;28;20022;-69
2023/04/04 03:07:03;;;;;;;5.85;3.70;;;;;;;1.50;100.00;103072.94;5026265;28;20040;-67
2023/04/04 03:09:29;;;;;;;6.10;3.67;;;;;;;1.45;100.00;103069.28;5025563;28;20064;-67
2023/04/04 03:11:54;;;;;;;9.55;4.03;;;;;;;1.53;100.00;103079.09;5027024;28;20045;-70
2023/04/04 03:14:20;;;;;;;6.65;3.58;;;;;;;1.39;100.00;103072.47;5025312;28;20527;-67
2023/04/04 03:16:48;;;;;;;7.60;3.90;;;;;;;1.32;100.00;103074.78;5008335;28;20033;-68
2023/04/04 03:19:13;;;;;;;10.60;4.05;;;;;;;1.24;100.00;103075.34;5026568;28;20029;-68
2023/04/04 03:21:38;;;;;;;8.15;4.15;;;;;;;1.27;100.00;103074.59;5025838;28;20109;-68
2023/04/04 03:24:04;;;;;;;9.95;4.25;;;;;;;1.28;100.00;103083.25;5026404;28;20083;-69
2023/04/04 03:26:29;;;;;;;5.55;4.10;;;;;;;1.28;100.00;103086.75;5020298;28;20037;-68
2023/04/04 03:28:55;;;;;;;7.68;3.80;;;;;;;1.25;100.00;103094.41;5013072;28;20018;-68
2023/04/04 03:31:20;;;;;;;10.23;4.00;;;;;;;1.19;100.00;103089.84;5020655;28;20506;-69
2023/04/04 03:33:46;;;;;;;7.55;4.35;;;;;;;1.16;100.00;103086.22;5025026;28;20052;-69
2023/04/04 03:36:11;;;;;;;9.68;3.78;;;;;;;1.13;100.00;103089.59;5026169;28;20033;-69
2023/04/04 03:38:37;;;;;;;8.27;4.10;;;;;;;1.06;100.00;103087.56;5025754;28;20021;-67
2023/04/04 03:41:03;;;;;;;7.32;3.78;;;;;;;1.04;100.00;103091.81;5025831;28;20029;-68
2023/04/04 03:43:30;;;;;;;6.97;3.85;;;;;;;1.03;100.00;103090.03;5026455;28;20025;-70
2023/04/04 03:45:59;;;;;;;8.57;3.95;;;;;;;1.01;100.00;103092.56;5027065;28;20099;-68
2023/04/04 03:48:25;;;;;;;8.15;3.97;;;;;;;1.03;100.00;103101.31;5019355;28;20420;-69
2023/04/04 03:50:50;;;;;;;8.80;4.03;;;;;;;0.95;100.00;103097.50;5001605;28;20025;-68
2023/04/04 03:53:15;;;;;;;11.18;3.97;;;;;;;0.99;100.00;103095.09;5007431;28;20038;-69
2023/04/04 03:55:41;;;;;;;7.70;4.65;;;;;;;1.07;100.00;103090.22;5026099;28;20029;-68
2023/04/04 03:58:06;;;;;;;10.60;3.90;;;;;;;1.07;100.00;103086.75;5025246;28;20029;-68
2023/04/04 04:00:31;;;;;;;7.72;4.13;;;;;;;1.08;100.00;103093.72;5024158;28;20546;-68
2023/04/04 04:02:57;;;;;;;10.52;4.55;;;;;;;1.10;100.00;103086.88;5008442;28;20033;-67
2023/04/04 04:05:23;;;;;;;7.70;4.30;;;;;;;1.05;100.00;103084.06;5025369;28;20025;-68
2023/04/04 04:07:49;;;;;;;7.55;4.90;;;;;;;1.06;100.00;103084.97;5026795;28;20086;-67
2023/04/04 04:10:14;;;;;;;13.60;5.13;;;;;;;0.98;100.00;103092.44;5026254;28;20468;-69
2023/04/04 04:12:40;;;;;;;6.68;4.38;;;;;;;0.91;100.00;103091.31;5027108;28;20041;-69
2023/04/04 04:15:06;;;;;;;5.22;4.20;;;;;;;0.85;100.00;103083.25;5029441;28;20108;-69
2023/04/04 04:17:31;;;;;;;9.35;4.47;;;;;;;0.90;100.00;103083.44;5028602;28;20638;-67
2023/04/04 04:19:56;;;;;;;8.10;4.70;;;;;;;0.98;100.00;103088.13;5011563;28;20089;-68
2023/04/04 04:22:22;;;;;;;8.63;4.35;;;;;;;0.96;100.00;103084.56;5028892;28;20025;-69
2023/04/04 04:24:47;;;;;;;6.50;4.60;;;;;;;0.95;100.00;103088.00;5015594;28;20064;-67
2023/04/04 04:27:12;;;;;;;8.98;4.82;;;;;;;0.91;100.00;103090.41;5028573;28;20060;-68
2023/04/04 04:29:38;;;;;;;7.53;4.38;;;;;;;0.84;100.00;103094.47;5011048;28;20104;-67
2023/04/04 04:32:03;;;;;;;6.50;4.30;;;;;;;0.75;100.00;103090.63;5011262;28;20053;-69
2023/04/04 04:34:28;;;;;;;11.52;4.22;;;;;;;0.80;100.00;103087.34;5028269;28;20029;-68
2023/04/04 04:36:54;;;;;;;11.25;4.70;;;;;;;0.80;100.00;103088.22;5028767;28;20033;-69
2023/04/04 04:39:19;;;;;;;8.52;4.85;;;;;;;0.79;100.00;103085.56;5028381;28;20463;-68
2023/04/04 04:41:44;;;;;;;8.65;4.60;;;;;;;0.82;100.00;103086.59;5026065;28;20032;-69
2023/04/04 04:44:10;;;;;;;9.38;4.93;;;;;;;0.85;100.00;103081.50;5017839;28;20097;-70
2023/04/04 04:46:35;;;;;;;11.45;5.60;;;;;;;0.86;100.00;103091.09;5027810;28;20500;-68
2023/04/04 04:49:00;;;;;;;9.00;4.60;;;;;;;0.84;100.00;103102.25;5027977;28;20518;-68
2023/04/04 04:51:26;;;;;;;7.38;4.53;;;;;;;0.91;100.00;103095.59;5027336;28;20476;-68
2023/04/04 04:53:51;;;;;;;12.02;5.40;;;;;;;0.84;100.00;103089.25;5028679;28;20021;-68
2023/04/04 04:56:17;;;;;;;7.22;4.75;;;;;;;0.84;100.00;103084.94;5027789;28;20034;-68
2023/04/04 04:58:43;;;;;;;6.32;4.38;;;;;;;0.80;100.00;103092.53;5028950;28;20037;-70
2023/04/04 05:01:09;;;;;;;9.73;5.40;;;;;;;0.79;100.00;103095.94;5026761;28;20029;-70
2023/04/04 05:03:34;;;;;;;11.57;5.10;;;;;;;0.81;100.00;103096.91;5010116;28;20052;-69
2023/04/04 05:06:00;;;;;;;13.18;5.38;;;;;;;0.81;100.00;103102.09;5028408;28;20038;-69
2023/04/04 05:08:26;;;;;;;15.05;5.75;;;;;;;0.86;100.00;103095.38;5010355;28;20087;-68
2023/04/04 05:10:53;;;;;;;11.82;5.28;;;;;;;0.90;100.00;103099.88;5007437;28;20697;-69
2023/04/04 05:13:19;;;;;;;7.55;5.38;;;;;;;0.87;100.00;103103.25;5006357;28;20114;-69
2023/04/04 05:15:46;;;;;;;7.47;5.18;;;;;;;0.90;100.00;103104.22;5008386;28;20097;-68
2023/04/04 05:18:11;;;;;;;11.25;5.25;;;;;;;0.84;100.00;103102.25;5005619;28;20030;-69
2023/04/04 05:20:36;;;;;;;10.85;5.43;;;;;;;0.84;100.00;103099.66;5008031;28;20033;-68
2023/04/04 05:23:02;;;;;;;12.73;6.00;;;;;;;0.84;100.00;103100.50;5007220;28;20036;-70
2023/04/04 05:25:27;;;;;;;11.23;5.70;;;;;;;0.83;100.00;103103.03;5009939;28;20018;-68
2023/04/04 05:27:54;;;;;;;9.15;5.55;;;;;;;0.80;100.00;103108.09;5008592;28;20104;-69
2023/04/04 05:30:20;;;;;;;9.77;5.88;;;;;;;0.80;100.00;103113.28;5007869;28;20025;-68
2023/04/04 05:32:45;;;;;;;20.50;6.43;;;;;;;0.87;100.00;103118.81;5007207;28;20037;-69
2023/04/04 05:35:11;;;;;;;14.63;5.93;;;;;;;0.90;100.00;103112.88;5007273;28;20022;-69
2023/04/04 05:37:40;;;;;;;14.35;5.40;;;;;;;0.92;100.00;103113.84;5006849;28;20058;-68
2023/04/04 05:40:07;;;;;;;19.75;5.78;;;;;;;0.93;100.00;103120.78;5005252;28;20030;-70
2023/04/04 05:42:32;;;;;;;11.63;5.32;;;;;;;1.03;100.00;103113.41;5005387;28;20053;-69
2023/04/04 05:44:57;;;;;;;20.08;6.53;;;;;;;1.14;100.00;103119.94;4988424;28;20080;-68
2023/04/04 05:47:23;;;;;;;9.48;5.85;;;;;;;1.12;100.00;103124.19;5004387;28;20384;-68
2023/04/04 05:49:48;;;;;;;11.30;5.40;;;;;;;1.18;100.00;103124.47;5003720;28;20461;-69
2023/04/04 05:52:13;;;;;;;10.18;5.88;;;;;;;1.20;100.00;103112.41;5006974;28;20018;-68
2023/04/04 05:54:39;;;;;;;14.93;5.93;;;;;;;1.28;100.00;103107.53;5005357;28;20014;-68
2023/04/04 05:57:04;;;;;;;13.50;5.88;;;;;;;1.31;100.00;103106.78;5003062;28;20109;-68
2023/04/04 05:59:29;;;;;;;10.48;5.43;;;;;;;1.35;100.00;103108.66;5007287;28;20433;-68
2023/04/04 06:01:55;;;;;;;8.45;5.40;;;;;;;1.48;100.00;103110.94;5005014;28;20484;-69
2023/04/04 06:04:20;;;;;;;14.07;6.38;;;;;;;1.59;100.00;103108.78;5004976;28;20373;-68
2023/04/04 06:06:46;;;;;;;11.15;5.63;;;;;;;1.62;100.00;103110.63;5003455;28;20042;-68
2023/04/04 06:09:11;;;;;;;15.25;6.55;;;;;;;1.63;100.00;103102.00;5006101;28;20068;-68
2023/04/04 06:11:36;;;;;;;8.35;5.82;;;;;;;1.70;100.00;103103.13;5016028;28;20038;-70
2023/04/04 06:14:02;;;;;;;11.88;5.70;;;;;;;1.72;100.00;103107.56;5026514;28;20022;-68
2023/04/04 06:16:27;;;;;;;11.55;5.82;;;;;;;1.89;100.00;103104.75;5025517;28;20017;-69
2023/04/04 06:18:52;;;;;;;9.90;5.50;;;;;;;1.93;100.00;103109.25;5025100;28;20014;-68
2023/04/04 06:21:18;;;;;;;9.90;5.18;;;;;;;1.96;100.00;103098.94;5025110;28;20033;-68
2023/04/04 06:23:43;;;;;;;12.07;5.70;;;;;;;1.89;100.00;103103.03;5024369;28;20049;-69
2023/04/04 06:26:08;;;;;;;10.77;6.03;;;;;;;1.97;100.00;103105.94;5006398;28;20049;-69
2023/04/04 06:28:34;;;;;;;9.52;5.60;;;;;;;2.17;100.00;103107.53;4988313;28;20554;-69
2023/04/04 06:31:00;;;;;;;13.90;5.28;;;;;;;2.29;100.00;103107.09;4989348;28;20028;-67
2023/04/04 06:33:25;;;;;;;12.10;5.53;;;;;;;2.38;100.00;103108.31;5014771;28;20144;-71
2023/04/04 06:35:50;;;;;;;9.02;5.25;;;;;;;2.44;100.00;103101.59;5008422;28;20029;-69
2023/04/04 06:38:16;;;;;;;12.43;5.57;;;;;;;2.63;100.00;103108.34;5025026;28;20459;-69
2023/04/04 06:40:41;;;;;;;9.63;5.35;;;;;;;2.81;100.00;103107.22;5025530;28;20364;-69
2023/04/04 06:43:07;;;;;;;8.70;4.82;;;;;;;2.94;100.00;103106.81;5023087;28;20113;-69
2023/04/04 06:45:34;;;;;;;11.70;5.07;;;;;;;2.97;100.00;103114.75;5025246;28;20071;-68
2023/04/04 06:48:00;;;;;;;10.23;4.72;;;;;;;3.01;100.00;103110.53;5027160;28;20413;-69
2023/04/04 06:50:26;;;;;;;6.57;4.57;;;;;;;3.03;100.00;103116.66;5003106;28;20056;-69
2023/04/04 06:52:51;;;;;;;9.95;4.95;;;;;;;3.10;100.00;103116.03;4990279;28;20034;-70
2023/04/04 06:55:17;;;;;;;10.30;4.70;;;;;;;3.15;100.00;103119.69;5005131;28;20039;-69
2023/04/04 06:57:42;;;;;;;8.77;4.88;;;;;;;3.18;100.00;103113.69;5004429;28;20022;-69
2023/04/04 07:00:09;;;;;;;12.90;4.55;;;;;;;3.29;100.00;103120.16;5026836;28;20548;-70
2023/04/04 07:02:34;;;;;;;8.18;4.70;;;;;;;3.45;100.00;103122.38;5026428;28;20022;-68
2023/04/04 07:05:00;;;;;;;16.65;5.40;;;;;;;3.52;100.00;103120.03;5025614;28;20129;-68
2023/04/04 07:07:25;;;;;;;11.23;5.35;;;;;;;3.59;100.00;103120.22;5022063;28;20473;-68
2023/04/04 07:09:51;;;;;;;6.78;4.65;;;;;;;3.72;100.00;103125.00;5026804;28;20132;-68
2023/04/04 07:12:16;;;;;;;8.45;4.28;;;;;;;3.79;100.00;103124.34;5025335;28;20049;-70
2023/04/04 07:14:41;;;;;;;9.75;4.30;;;;;;;3.97;100.00;103127.50;5026386;28;20479;-70
2023/04/04 07:17:07;;;;;;;10.88;4.45;;;;;;;3.99;100.00;103121.50;5025931;28;20372;-69
2023/04/04 07:19:32;;;;;;;7.65;5.00;;;;;;;3.96;100.00;103115.28;5024536;28;20025;-69
2023/04/04 07:21:58;;;;;;;5.70;4.25;;;;;;;4.19;100.00;103121.22;5026654;28;20086;-70
2023/04/04 07:24:23;;;;;;;9.90;4.40;;;;;;;4.22;100.00;103123.00;5022917;28;20388;-67
2023/04/04 07:26:48;;;;;;;7.07;4.45;;;;;;;4.23;100.00;103130.91;5023186;28;20036;-69
2023/04/04 07:29:14;;;;;;;10.50;4.60;;;;;;;4.35;100.00;103140.81;5004384;28;20061;-69
2023/04/04 07:31:39;;;;;;;8.57;4.65;;;;;;;4.48;100.00;103142.03;5024553;28;20026;-68
2023/04/04 07:34:06;;;;;;;7.68;4.40;;;;;;;4.58;100.00;103137.09;5025693;28;20491;-67
2023/04/04 07:36:31;;;;;;;13.68;4.57;;;;;;;4.63;100.00;103128.53;5009508;28;20030;-69
2023/04/04 07:38:57;;;;;;;8.60;4.72;;;;;;;4.63;100.00;103127.66;5025925;28;20071;-69
2023/04/04 07:41:22;;;;;;;6.70;4.22;;;;;;;4.67;100.00;103127.78;5026484;28;20021;-70
2023/04/04 07:43:48;;;;;;;10.32;4.13;;;;;;;4.91;100.00;103121.44;5027196;28;20018;-67
2023/04/04 07:46:13;;;;;;;6.75;4.05;;;;;;;5.02;100.00;103123.47;4989836;28;20408;-70
2023/04/04 07:48:39;;;;;;;6.43;4.10;;;;;;;5.16;100.00;103122.13;4991921;28;20053;-70
2023/04/04 07:51:05;;;;;;;9.40;4.13;;;;;;;5.16;98.29;103118.59;5011248;28;20105;-68
2023/04/04 07:53:30;;;;;;;5.65;3.90;;;;;;;5.21;99.23;103124.81;5011403;28;20500;-69
2023/04/04 07:55:56;;;;;;;7.93;3.90;;;;;;;5.25;100.00;103128.41;5024255;28;20071;-68
2023/04/04 07:58:21;;;;;;;7.68;3.70;;;;;;;5.33;97.03;103112.91;5030088;28;20080;-68
2023/04/04 08:00:47;;;;;;;12.35;4.13;;;;;;;5.30;96.13;103113.75;5029078;28;20113;-68
2023/04/04 08:03:12;;;;;;;8.45;3.45;;;;;;;5.52;94.84;103107.31;5029423;28;20021;-70
2023/04/04 08:05:38;;;;;;;9.10;4.15;;;;;;;5.52;91.84;103115.16;5009147;28;20079;-68
2023/04/04 08:08:03;;;;;;;12.82;3.72;;;;;;;5.60;90.04;103112.69;4992775;28;20026;-68
2023/04/04 08:10:29;;;;;;;6.90;3.90;;;;;;;5.79;89.94;103107.91;5010354;28;20026;-68
2023/04/04 08:12:54;;;;;;;8.27;3.88;;;;;;;5.91;89.97;103108.19;5030647;28;20041;-68
2023/04/04 08:15:20;;;;;;;5.57;3.10;;;;;;;5.99;88.37;103104.84;5029214;28;20032;-69
2023/04/04 08:17:45;;;;;;;7.22;3.20;;;;;;;6.00;86.84;103111.84;5028051;28;20041;-69
2023/04/04 08:20:11;;;;;;;5.85;3.10;;;;;;;6.17;87.26;103109.66;5029510;28;20025;-69
2023/04/04 08:22:38;;;;;;;6.85;2.97;;;;;;;6.07;83.80;103111.16;5024744;28;20372;-68
2023/04/04 08:25:04;;;;;;;7.72;3.67;;;;;;;6.18;84.50;103120.13;5012007;28;20033;-68
2023/04/04 08:27:29;;;;;;;7.28;3.10;;;;;;;6.23;83.22;103116.75;5029935;28;20034;-68
2023/04/04 08:29:55;;;;;;;6.60;3.05;;;;;;;6.26;81.25;103111.56;5029683;28;20036;-69
2023/04/04 08:32:21;;;;;;;5.07;3.08;;;;;;;6.44;81.57;103103.19;5023314;28;20197;-67
2023/04/04 08:34:46;;;;;;;3.40;2.30;;;;;;;6.27;71.80;103105.47;5010894;28;20061;-67
2023/04/04 08:37:12;;;;;;;6.65;2.70;;;;;;;6.07;70.28;103101.59;5028677;28;20033;-68
2023/04/04 08:39:37;;;;;;;6.93;2.40;;;;;;;6.02;70.23;103103.16;5029401;28;20414;-67
2023/04/04 08:42:04;;;;;;;4.28;2.58;;;;;;;6.21;70.78;103106.22;5029169;28;20033;-68
2023/04/04 08:44:31;;;;;;;4.38;2.30;;;;;;;6.35;67.52;103098.63;5028166;28;20053;-68
2023/04/04 08:47:02;;;;;;;3.40;2.00;;;;;;;6.53;67.38;103098.13;5027973;28;20056;-68
2023/04/04 08:49:28;;;;;;;10.50;2.92;;;;;;;6.76;68.37;103096.81;5022548;28;20379;-68
2023/04/04 08:51:55;;;;;;;6.95;2.60;;;;;;;6.82;67.65;103102.16;5028882;28;20029;-68
2023/04/04 08:54:21;;;;;;;4.57;2.33;;;;;;;6.97;66.53;103098.94;5020652;28;20030;-69
2023/04/04 08:56:47;;;;;;;3.25;2.20;;;;;;;6.68;66.15;103100.16;5017204;28;20041;-70
2023/04/04 08:59:14;;;;;;;3.58;1.85;;;;;;;7.03;66.15;103103.41;5021400;28;20109;-67
2023/04/04 09:01:40;;;;;;;3.92;2.40;;;;;;;7.08;66.83;103102.63;5008452;28;20535;-70
2023/04/04 09:04:06;;;;;;;5.63;2.47;;;;;;;7.16;66.49;103097.50;5007613;28;20030;-68
2023/04/04 09:06:32;;;;;;;4.55;2.50;;;;;;;6.84;65.85;103108.31;4990684;28;20077;-67
2023/04/04 09:08:58;;;;;;;8.40;2.47;;;;;;;6.94;66.06;103098.88;5006688;28;20498;-68
2023/04/04 09:11:25;;;;;;;5.72;2.92;;;;;;;6.77;66.05;103099.44;4989870;28;20049;-69
2023/04/04 09:13:51;;;;;;;3.90;2.80;;;;;;;6.57;65.47;103101.72;4988762;28;20038;-68
2023/04/04 09:16:16;;;;;;;9.75;3.10;;;;;;;6.95;64.90;103106.78;5007280;28;20033;-68
2023/04/04 09:18:42;;;;;;;2.88;2.13;;;;;;;7.32;64.42;103111.75;5025113;28;20230;-70
2023/04/04 09:21:11;;;;;;;7.10;2.47;;;;;;;7.56;65.94;103099.03;5024597;28;20021;-68
2023/04/04 09:23:37;;;;;;;9.65;3.13;;;;;;;7.71;66.52;103098.38;5026201;28;20036;-68
2023/04/04 09:26:03;;;;;;;5.38;3.00;;;;;;;7.87;67.08;103098.56;5013448;28;20124;-67
2023/04/04 09:28:28;;;;;;;8.15;2.90;;;;;;;8.04;66.51;103096.19;5006729;28;20121;-68
2023/04/04 09:30:53;;;;;;;5.47;2.90;;;;;;;7.77;64.23;103093.19;5016987;28;20040;-69
2023/04/04 09:33:23;;;;;;;5.85;2.67;;;;;;;7.79;66.68;103096.72;4993403;28;20052;-68
2023/04/04 09:36:01;;;;;;;5.20;2.88;;;;;;;7.98;66.73;103097.00;4989068;28;20079;-66
2023/04/04 09:38:28;;;;;;;9.35;3.10;;;;;;;8.26;65.33;103099.06;5011932;28;20030;-66
2023/04/04 09:40:54;;;;;;;6.65;3.15;;;;;;;8.29;65.14;103096.50;4989030;28;20021;-67
2023/04/04 09:43:21;;;;;;;4.57;2.85;;;;;;;7.99;64.91;103093.50;4988190;28;20022;-68
2023/04/04 09:45:49;;;;;;;7.72;2.90;;;;;;;7.90;67.03;103096.00;5027248;28;20087;-68
2023/04/04 09:48:26;;;;;;;8.13;3.25;;;;;;;7.84;65.69;103089.81;5026412;28;20546;-66
2023/04/04 09:50:51;;;;;;;8.68;3.08;;;;;;;7.81;65.93;103078.38;5007794;28;20033;-67
2023/04/04 09:53:17;;;;;;;9.52;2.90;;;;;;;8.08;65.02;103076.97;5014234;28;20025;-67
2023/04/04 09:55:49;;;;;;;4.53;2.55;;;;;;;7.93;64.04;103088.16;5006663;28;20030;-68
2023/04/04 09:58:16;;;;;;;4.80;2.65;;;;;;;7.95;63.71;103083.81;4997138;28;20469;-68
2023/04/04 10:00:47;;;;;;;7.50;3.00;;;;;;;7.65;62.34;103082.53;5026567;28;20037;-68
2023/04/04 10:03:14;;;;;;;8.00;2.63;;;;;;;7.73;63.03;103074.78;5021646;28;20021;-68
2023/04/04 10:05:39;;;;;;;5.78;3.10;;;;;;;7.92;62.56;103084.63;4993075;28;20021;-69
2023/04/04 10:08:16;;;;;;;5.07;2.58;;;;;;;8.20;62.09;103077.16;5005341;28;20507;-68
2023/04/04 10:10:50;;;;;;;4.90;2.78;;;;;;;8.31;62.23;103084.28;5026490;28;20781;-67
2023/04/04 10:13:27;;;;;;;7.40;3.15;;;;;;;8.34;62.28;103081.69;5007355;28;20034;-66
2023/04/04 10:15:53;;;;;;;6.93;2.70;;;;;;;8.02;60.69;103076.91;5026412;28;20024;-66
2023/04/04 10:18:21;;;;;;;8.13;2.67;;;;;;;7.90;61.24;103080.25;5006878;28;20021;-65
2023/04/04 10:20:48;;;;;;;6.15;2.70;;;;;;;8.09;60.77;103079.63;5003658;28;20089;-67
2023/04/04 10:23:14;;;;;;;4.65;2.55;;;;;;;8.36;60.00;103081.69;5025534;28;20099;-65
2023/04/04 10:25:40;;;;;;;6.40;2.72;;;;;;;8.76;60.55;103081.28;5006628;28;20407;-66
2023/04/04 10:28:05;;;;;;;5.60;2.53;;;;;;;8.74;59.74;103076.00;5008679;28;20009;-66
2023/04/04 10:30:38;;;;;;;5.25;2.88;;;;;;;8.80;61.02;103073.44;5025836;28;20056;-67
2023/04/04 10:33:14;;;;;;;7.90;2.60;;;;;;;9.05;58.74;103064.88;5025247;28;20033;-65
2023/04/04 10:35:40;;;;;;;6.80;2.80;;;;;;;8.84;59.75;103064.69;5008930;28;20091;-66
2023/04/04 10:38:07;;;;;;;3.63;2.60;;;;;;;8.80;62.67;103060.28;5008833;28;20021;-65
2023/04/04 10:40:38;;;;;;;6.82;3.08;;;;;;;8.95;59.26;103063.91;5007861;28;20034;-67
2023/04/04 10:43:08;;;;;;;5.60;2.20;;;;;;;9.09;60.51;103058.75;5027136;28;20029;-65
2023/04/04 10:45:37;;;;;;;5.72;2.97;;;;;;;8.95;58.88;103063.91;5019984;28;20022;-66
2023/04/04 10:48:03;;;;;;;6.20;2.80;;;;;;;9.38;60.56;103051.94;5023350;28;20065;-68
2023/04/04 10:50:30;;;;;;;7.18;2.67;;;;;;;9.22;61.83;103051.88;5026223;28;20406;-66
2023/04/04 10:52:58;;;;;;;4.78;2.53;;;;;;;9.25;60.04;103062.41;5026582;28;20022;-66
2023/04/04 10:55:24;;;;;;;6.30;3.05;;;;;;;9.30;58.92;103042.25;5022066;28;20064;-66
2023/04/04 10:57:52;;;;;;;5.80;2.83;;;;;;;9.44;56.78;103042.38;5025542;28;20112;-66
2023/04/04 11:00:19;;;;;;;5.65;3.03;;;;;;;9.65;60.02;103034.56;4989476;28;20031;-67
2023/04/04 11:02:53;;;;;;;5.18;2.50;;;;;;;9.95;58.29;103039.13;5022696;28;20546;-65
2023/04/04 11:05:25;;;;;;;7.25;3.15;;;;;;;10.16;55.19;103039.19;5025421;28;20057;-65
2023/04/04 11:08:09;;;;;;;6.30;3.10;;;;;;;10.20;56.62;103033.03;5018481;28;20060;-65
2023/04/04 11:10:46;;;;;;;6.50;2.92;;;;;;;10.13;56.80;103026.88;5025509;28;20109;-64
2023/04/04 11:13:15;;;;;;;5.50;2.85;;;;;;;9.87;54.22;103032.91;5025426;28;20040;-65
2023/04/04 11:16:20;;;;;;;5.78;2.80;;;;;;;9.31;52.98;103027.38;5022795;28;20026;-67
2023/04/04 11:18:46;;;;;;;5.22;2.90;;;;;;;9.84;59.37;103022.38;4935836;29;20121;-66
2023/04/04 11:21:18;;;;;;;8.05;2.90;;;;;;;9.95;52.42;103022.44;4925253;29;20027;-66
2023/04/04 11:23:47;;;;;;;4.25;2.75;;;;;;;10.27;50.06;103011.13;4974908;28;20192;-65